createdAt,value
2019-02-17T00:02:10.822Z,3.30
2019-02-17T00:04:51.220Z,3.30
2019-02-17T00:07:31.698Z,3.30
2019-02-17T00:10:12.504Z,3.20
2019-02-17T00:12:53.286Z,3.20
2019-02-17T00:15:34.065Z,3.20
2019-02-17T00:18:14.759Z,3.20
2019-02-17T00:20:58.778Z,3.20
2019-02-17T00:23:39.478Z,3.20
2019-02-17T00:26:20.191Z,3.10
2019-02-17T00:29:01.063Z,3.10
2019-02-17T00:31:41.746Z,3.20
2019-02-17T00:34:22.582Z,3.20
2019-02-17T00:37:03.390Z,3.20
2019-02-17T00:39:43.825Z,3.20
2019-02-17T00:42:24.511Z,3.10
2019-02-17T00:45:05.546Z,3.10
2019-02-17T00:47:45.913Z,3.10
2019-02-17T00:50:26.886Z,3.00
2019-02-17T00:53:07.502Z,3.00
2019-02-17T00:55:48.398Z,3.00
2019-02-17T00:58:28.851Z,2.90
2019-02-17T01:01:09.444Z,2.90
2019-02-17T01:03:49.852Z,2.90
2019-02-17T01:06:30.762Z,2.90
2019-02-17T01:09:11.329Z,2.90
2019-02-17T01:11:52.231Z,2.90
2019-02-17T01:14:32.778Z,2.90
2019-02-17T01:17:13.262Z,2.80
2019-02-17T01:19:53.789Z,2.80
2019-02-17T01:22:34.424Z,2.80
2019-02-17T01:25:14.934Z,2.80
2019-02-17T01:27:55.550Z,2.80
2019-02-17T01:30:36.045Z,2.70
2019-02-17T01:33:16.584Z,2.70
2019-02-17T01:35:56.974Z,2.70
2019-02-17T01:38:56.883Z,2.70
2019-02-17T01:41:37.193Z,2.60
2019-02-17T01:44:17.506Z,2.60
2019-02-17T01:46:57.933Z,2.60
2019-02-17T01:49:38.711Z,2.50
2019-02-17T01:52:19.601Z,2.50
2019-02-17T01:55:00.534Z,2.50
2019-02-17T01:57:41.368Z,2.50
2019-02-17T02:03:28.782Z,2.50
2019-02-17T02:06:16.669Z,2.40
2019-02-17T02:09:25.306Z,2.40
2019-02-17T02:12:13.250Z,2.40
2019-02-17T02:15:01.131Z,2.40
2019-02-17T02:17:49.051Z,2.40
2019-02-17T02:20:36.931Z,2.40
2019-02-17T02:23:24.828Z,2.30
2019-02-17T02:26:12.705Z,2.30
2019-02-17T02:29:00.602Z,2.30
2019-02-17T02:31:48.486Z,2.30
2019-02-17T02:34:36.328Z,2.30
2019-02-17T02:37:24.206Z,2.30
2019-02-17T02:40:12.101Z,2.30
2019-02-17T02:43:00.008Z,2.30
2019-02-17T02:45:47.883Z,2.30
2019-02-17T02:48:35.794Z,2.30
2019-02-17T02:51:23.662Z,2.30
2019-02-17T02:54:11.564Z,2.20
2019-02-17T02:56:59.488Z,2.20
2019-02-17T02:59:52.379Z,2.20
2019-02-17T03:02:36.994Z,2.20
2019-02-17T03:05:24.894Z,2.20
2019-02-17T03:08:12.804Z,2.20
2019-02-17T03:11:00.691Z,2.20
2019-02-17T03:13:48.593Z,2.10
2019-02-17T03:16:36.478Z,2.10
2019-02-17T03:19:17.252Z,2.10
2019-02-17T03:21:57.614Z,2.00
2019-02-17T03:24:38.454Z,2.00
2019-02-17T03:27:18.993Z,2.00
2019-02-17T03:30:05.037Z,1.90
2019-02-17T03:32:42.573Z,1.90
2019-02-17T03:35:23.652Z,1.90
2019-02-17T03:38:04.706Z,1.90
2019-02-17T03:40:45.753Z,1.90
2019-02-17T03:43:26.810Z,1.90
2019-02-17T03:46:07.419Z,1.90
2019-02-17T03:48:48.050Z,1.90
2019-02-17T03:51:28.691Z,1.80
2019-02-17T03:54:09.499Z,1.80
2019-02-17T03:56:50.227Z,1.80
2019-02-17T03:59:31.100Z,1.80
2019-02-17T04:02:12.043Z,1.80
2019-02-17T04:04:52.908Z,1.80
2019-02-17T04:07:33.594Z,1.70
2019-02-17T04:10:14.239Z,1.70
2019-02-17T04:12:54.831Z,1.70
2019-02-17T04:15:35.554Z,1.70
2019-02-17T04:18:16.413Z,1.70
2019-02-17T04:20:57.403Z,1.70
2019-02-17T04:23:37.984Z,1.60
2019-02-17T04:26:18.891Z,1.60
2019-02-17T04:28:59.744Z,1.60
2019-02-17T04:31:40.702Z,1.60
2019-02-17T04:34:21.394Z,1.60
2019-02-17T04:37:02.617Z,1.60
2019-02-17T04:39:43.618Z,1.50
2019-02-17T04:42:24.647Z,1.60
2019-02-17T04:45:05.321Z,1.50
2019-02-17T04:47:45.919Z,1.50
2019-02-17T04:50:26.599Z,1.50
2019-02-17T04:53:07.202Z,1.50
2019-02-17T04:55:48.048Z,1.40
2019-02-17T04:58:28.930Z,1.40
2019-02-17T05:01:09.755Z,1.40
2019-02-17T05:03:50.582Z,1.30
2019-02-17T05:06:31.215Z,1.40
2019-02-17T05:09:12.090Z,1.40
2019-02-17T05:11:53.023Z,1.40
2019-02-17T05:14:33.644Z,1.40
2019-02-17T05:17:14.503Z,1.40
2019-02-17T05:19:55.341Z,1.40
2019-02-17T05:22:39.310Z,1.40
2019-02-17T05:25:18.702Z,1.40
2019-02-17T05:27:59.426Z,1.30
2019-02-17T05:30:51.642Z,1.30
2019-02-17T05:33:22.380Z,1.30
2019-02-17T05:36:03.204Z,1.20
2019-02-17T05:38:44.092Z,1.20
2019-02-17T05:41:25.106Z,1.20
2019-02-17T05:44:05.969Z,1.20
2019-02-17T05:46:46.839Z,1.20
2019-02-17T05:49:27.189Z,1.30
2019-02-17T05:52:08.122Z,1.20
2019-02-17T05:54:50.430Z,1.30
2019-02-17T05:57:31.222Z,1.30
2019-02-17T06:00:12.971Z,1.20
2019-02-17T06:02:53.787Z,1.20
2019-02-17T06:05:34.579Z,1.20
2019-02-17T06:08:15.378Z,1.20
2019-02-17T06:10:56.288Z,1.20
2019-02-17T06:13:36.938Z,1.20
2019-02-17T06:16:17.954Z,1.20
2019-02-17T06:18:58.302Z,1.10
2019-02-17T06:21:38.814Z,1.20
2019-02-17T06:24:19.226Z,1.20
2019-02-17T06:27:00.027Z,1.10
2019-02-17T06:29:40.841Z,1.10
2019-02-17T06:32:21.510Z,1.10
2019-02-17T06:35:02.146Z,1.10
2019-02-17T06:37:42.641Z,1.10
2019-02-17T06:40:23.335Z,1.10
2019-02-17T06:43:04.343Z,1.10
2019-02-17T06:45:44.840Z,1.00
2019-02-17T06:48:25.286Z,1.00
2019-02-17T06:51:06.064Z,1.00
2019-02-17T06:53:47.067Z,1.00
2019-02-17T06:59:22.064Z,1.10
2019-02-17T07:02:02.804Z,1.10
2019-02-17T07:05:02.704Z,1.10
2019-02-17T07:07:43.291Z,1.10
2019-02-17T07:10:25.703Z,1.10
2019-02-17T07:12:54.267Z,1.10
2019-02-17T07:15:42.150Z,1.10
2019-02-17T07:18:22.815Z,1.10
2019-02-17T07:21:03.338Z,1.10
2019-02-17T07:23:44.136Z,1.20
2019-02-17T07:26:25.070Z,1.20
2019-02-17T07:32:13.835Z,1.20
2019-02-17T07:34:54.216Z,1.30
2019-02-17T07:37:34.559Z,1.30
2019-02-17T07:40:15.455Z,1.40
2019-02-17T07:42:56.312Z,1.40
2019-02-17T07:45:36.822Z,1.50
2019-02-17T07:48:17.582Z,1.60
2019-02-17T07:50:58.098Z,1.60
2019-02-17T07:53:38.415Z,1.70
2019-02-17T07:56:19.074Z,1.80
2019-02-17T07:58:59.823Z,1.80
2019-02-17T08:01:45.269Z,1.90
2019-02-17T08:04:22.585Z,2.00
2019-02-17T08:07:03.654Z,2.00
2019-02-17T08:09:44.516Z,2.10
2019-02-17T08:12:25.334Z,2.20
2019-02-17T08:15:07.361Z,2.20
2019-02-17T08:17:48.495Z,2.30
2019-02-17T08:20:29.382Z,2.30
2019-02-17T08:23:10.339Z,2.40
2019-02-17T08:25:51.055Z,2.50
2019-02-17T08:28:31.875Z,2.60
2019-02-17T08:31:12.374Z,2.70
2019-02-17T08:33:53.614Z,2.70
2019-02-17T08:36:34.262Z,2.80
2019-02-17T08:39:14.846Z,2.90
2019-02-17T08:41:55.503Z,3.00
2019-02-17T08:44:35.884Z,3.10
2019-02-17T08:47:16.426Z,3.20
2019-02-17T08:49:57.170Z,3.30
2019-02-17T08:52:38.441Z,3.40
2019-02-17T08:55:19.259Z,3.50
2019-02-17T08:57:59.782Z,3.60
2019-02-17T09:00:40.975Z,3.80
2019-02-17T09:03:21.828Z,3.90
2019-02-17T09:06:02.426Z,4.00
2019-02-17T09:08:30.974Z,4.10
2019-02-17T09:11:18.883Z,4.20
2019-02-17T09:14:06.804Z,4.30
2019-02-17T09:16:54.674Z,4.50
2019-02-17T09:19:35.266Z,4.50
2019-02-17T09:25:35.338Z,4.80
2019-02-17T09:28:16.026Z,4.90
2019-02-17T09:30:56.623Z,5.00
2019-02-17T09:33:37.421Z,5.10
2019-02-17T09:36:18.312Z,5.30
2019-02-17T09:38:58.943Z,5.50
2019-02-17T09:41:39.446Z,5.70
2019-02-17T09:44:20.434Z,5.90
2019-02-17T09:47:01.286Z,6.10
2019-02-17T09:49:41.740Z,6.30
2019-02-17T09:52:22.347Z,6.50
2019-02-17T09:55:03.567Z,6.80
2019-02-17T09:57:32.115Z,7.10
2019-02-17T10:00:20.028Z,7.30
2019-02-17T10:03:07.907Z,7.50
2019-02-17T10:05:55.814Z,7.70
2019-02-17T10:08:43.714Z,7.90
2019-02-17T10:11:31.604Z,8.10
2019-02-17T10:14:19.490Z,8.20
2019-02-17T10:17:07.398Z,8.30
2019-02-17T10:19:48.343Z,8.40
2019-02-17T10:22:28.850Z,8.60
2019-02-17T10:25:09.351Z,8.70
2019-02-17T10:27:50.143Z,8.80
2019-02-17T10:30:30.994Z,8.90
2019-02-17T10:36:31.022Z,9.00
2019-02-17T10:39:11.650Z,9.10
2019-02-17T10:41:52.515Z,9.20
2019-02-17T10:47:52.082Z,9.30
2019-02-17T10:50:32.750Z,9.40
2019-02-17T10:53:13.590Z,9.50
2019-02-17T10:55:54.223Z,9.60
2019-02-17T10:58:34.912Z,9.60
2019-02-17T11:01:15.608Z,9.70
2019-02-17T11:03:56.625Z,9.80
2019-02-17T11:06:37.518Z,9.80
2019-02-17T11:09:21.011Z,9.90
2019-02-17T11:12:02.562Z,10.00
2019-02-17T11:14:43.804Z,10.10
2019-02-17T11:17:24.940Z,10.10
2019-02-17T11:20:06.284Z,10.20
2019-02-17T11:22:46.722Z,10.30
2019-02-17T11:25:27.539Z,10.40
2019-02-17T11:28:08.054Z,10.40
2019-02-17T11:30:49.013Z,10.60
2019-02-17T11:33:29.938Z,10.70
2019-02-17T11:36:10.355Z,10.70
2019-02-17T11:42:10.043Z,10.90
2019-02-17T11:44:50.431Z,11.00
2019-02-17T11:47:31.483Z,11.00
2019-02-17T11:53:31.511Z,11.10
2019-02-17T11:56:12.379Z,11.10
2019-02-17T11:58:53.277Z,11.10
2019-02-17T12:01:33.782Z,11.20
2019-02-17T12:04:14.770Z,11.20
2019-02-17T12:06:55.123Z,11.40
2019-02-17T12:09:36.059Z,11.40
2019-02-17T12:12:16.960Z,11.50
2019-02-17T12:14:57.427Z,11.60
2019-02-17T12:17:38.192Z,11.70
2019-02-17T12:20:37.998Z,11.70
2019-02-17T12:23:23.591Z,11.70
2019-02-17T12:26:06.161Z,11.90
2019-02-17T12:28:51.611Z,11.90
2019-02-17T12:31:32.754Z,12.10
2019-02-17T12:34:13.778Z,12.20
2019-02-17T12:36:54.510Z,12.20
2019-02-17T12:39:35.203Z,12.30
2019-02-17T12:42:16.047Z,12.30
2019-02-17T12:44:57.228Z,12.30
2019-02-17T12:50:46.538Z,12.30
2019-02-17T12:53:27.013Z,12.40
2019-02-17T12:56:07.632Z,12.40
2019-02-17T12:58:48.304Z,12.50
2019-02-17T13:01:28.865Z,12.50
2019-02-17T13:04:09.884Z,12.50
2019-02-17T13:06:50.570Z,12.50
2019-02-17T13:09:31.584Z,12.50
2019-02-17T13:12:12.154Z,12.50
2019-02-17T13:14:52.762Z,12.50
2019-02-17T13:17:33.858Z,12.70
2019-02-17T13:20:14.250Z,12.70
2019-02-17T13:22:55.038Z,12.70
2019-02-17T13:25:38.190Z,12.70
2019-02-17T13:28:18.811Z,12.80
2019-02-17T13:30:59.633Z,12.80
2019-02-17T13:33:40.578Z,12.90
2019-02-17T13:36:20.878Z,13.00
2019-02-17T13:39:01.742Z,13.10
2019-02-17T13:41:42.663Z,13.10
2019-02-17T13:44:23.434Z,13.20
2019-02-17T13:47:04.431Z,13.20
2019-02-17T13:49:45.155Z,13.10
2019-02-17T13:52:26.106Z,13.20
2019-02-17T13:55:06.911Z,13.20
2019-02-17T13:57:35.422Z,13.30
2019-02-17T14:00:23.339Z,13.30
2019-02-17T14:03:11.250Z,13.30
2019-02-17T14:05:59.137Z,13.30
2019-02-17T14:08:47.041Z,13.30
2019-02-17T14:11:34.854Z,13.30
2019-02-17T14:14:22.763Z,13.30
2019-02-17T14:17:10.650Z,13.40
2019-02-17T14:19:51.343Z,13.50
2019-02-17T14:22:32.210Z,13.50
2019-02-17T14:28:40.678Z,13.50
2019-02-17T14:31:21.551Z,13.50
2019-02-17T14:37:07.070Z,13.60
2019-02-17T14:39:49.021Z,13.70
2019-02-17T14:45:26.235Z,13.70
2019-02-17T14:48:07.350Z,13.70
2019-02-17T14:50:48.043Z,13.80
2019-02-17T14:53:28.848Z,14.00
2019-02-17T14:56:09.546Z,14.10
2019-02-17T14:58:50.529Z,14.10
2019-02-17T15:01:30.938Z,14.10
2019-02-17T15:04:11.886Z,14.10
2019-02-17T15:10:11.875Z,14.00
2019-02-17T15:12:52.537Z,13.90
2019-02-17T15:15:33.334Z,13.80
2019-02-17T15:18:14.055Z,13.80
2019-02-17T15:20:55.090Z,13.70
2019-02-17T15:23:35.756Z,13.70
2019-02-17T15:26:16.637Z,13.60
2019-02-17T15:28:57.591Z,13.50
2019-02-17T15:31:38.318Z,13.50
2019-02-17T15:34:19.087Z,13.40
2019-02-17T15:36:59.747Z,13.40
2019-02-17T15:39:40.350Z,13.30
2019-02-17T15:42:20.743Z,13.30
2019-02-17T15:45:01.600Z,13.20
2019-02-17T15:47:42.027Z,13.20
2019-02-17T15:50:22.443Z,13.10
2019-02-17T15:53:03.469Z,13.10
2019-02-17T15:55:44.167Z,13.10
2019-02-17T15:58:24.961Z,13.00
2019-02-17T16:01:05.449Z,13.00
2019-02-17T16:03:46.131Z,12.90
2019-02-17T16:06:27.406Z,12.80
2019-02-17T16:09:08.290Z,12.70
2019-02-17T16:11:48.751Z,12.60
2019-02-17T16:14:29.733Z,12.50
2019-02-17T16:17:10.299Z,12.50
2019-02-17T16:19:50.726Z,12.40
2019-02-17T16:22:31.330Z,12.30
2019-02-17T16:25:12.004Z,12.20
2019-02-17T16:34:09.786Z,11.90
2019-02-17T16:36:50.249Z,11.80
2019-02-17T16:39:31.075Z,11.70
2019-02-17T16:42:11.619Z,11.60
2019-02-17T16:44:52.267Z,11.50
2019-02-17T16:47:32.910Z,11.50
2019-02-17T16:50:13.478Z,11.50
2019-02-17T16:56:13.307Z,11.30
2019-02-17T16:58:54.101Z,11.20
2019-02-17T17:01:34.934Z,11.10
2019-02-17T17:04:15.595Z,11.10
2019-02-17T17:06:56.106Z,11.10
2019-02-17T17:09:36.584Z,11.00
2019-02-17T17:12:16.970Z,10.90
2019-02-17T17:14:57.850Z,10.90
2019-02-17T17:17:38.538Z,10.90
2019-02-17T17:20:19.217Z,10.80
2019-02-17T17:22:59.730Z,10.70
2019-02-17T17:25:40.501Z,10.70
2019-02-17T17:28:21.439Z,10.50
2019-02-17T17:31:02.039Z,10.50
2019-02-17T17:33:42.526Z,10.40
2019-02-17T17:36:23.024Z,10.30
2019-02-17T17:39:03.564Z,10.20
2019-02-17T17:41:44.068Z,10.20
2019-02-17T17:44:24.495Z,10.10
2019-02-17T17:47:05.303Z,10.00
2019-02-17T17:49:46.052Z,10.00
2019-02-17T17:52:26.668Z,9.90
2019-02-17T17:58:26.743Z,9.70
2019-02-17T18:01:07.936Z,9.70
2019-02-17T18:03:48.809Z,9.60
2019-02-17T18:06:29.162Z,9.50
2019-02-17T18:09:09.862Z,9.50
2019-02-17T18:11:50.539Z,9.40
2019-02-17T18:14:31.157Z,9.30
2019-02-17T18:17:12.010Z,9.30
2019-02-17T18:19:52.567Z,9.20
2019-02-17T18:22:33.411Z,9.20
2019-02-17T18:25:13.758Z,9.10
2019-02-17T18:27:54.316Z,9.10
2019-02-17T18:30:34.882Z,9.10
2019-02-17T18:33:15.288Z,9.10
2019-02-17T18:39:15.626Z,9.00
2019-02-17T18:41:56.190Z,8.90
2019-02-17T18:44:36.682Z,8.80
2019-02-17T18:47:17.112Z,8.70
2019-02-17T18:49:57.858Z,8.70
2019-02-17T18:52:38.842Z,8.60
2019-02-17T18:55:19.286Z,8.60
2019-02-17T19:01:07.942Z,8.50
2019-02-17T19:03:51.747Z,8.50
2019-02-17T19:06:32.206Z,8.50
2019-02-17T19:09:13.194Z,8.50
2019-02-17T19:11:54.182Z,8.40
2019-02-17T19:14:22.723Z,8.40
2019-02-17T19:17:10.624Z,8.30
2019-02-17T19:19:51.682Z,8.20
2019-02-17T19:22:32.736Z,8.10
2019-02-17T19:25:13.986Z,8.10
2019-02-17T19:27:54.435Z,8.00
2019-02-17T19:30:35.204Z,7.90
2019-02-17T19:33:16.045Z,7.90
2019-02-17T19:35:57.020Z,7.90
2019-02-17T19:38:37.886Z,7.80
2019-02-17T19:41:18.731Z,7.70
2019-02-17T19:43:59.351Z,7.70
2019-02-17T19:46:40.215Z,7.60
2019-02-17T19:49:21.387Z,7.60
2019-02-17T19:52:02.088Z,7.50
2019-02-17T19:54:42.835Z,7.40
2019-02-17T19:57:23.960Z,7.40
2019-02-17T20:00:05.127Z,7.30
2019-02-17T20:02:47.247Z,7.30
2019-02-17T20:05:29.679Z,7.30
2019-02-17T20:08:10.794Z,7.20
2019-02-17T20:10:51.550Z,7.20
2019-02-17T20:13:32.241Z,7.20
2019-02-17T20:16:13.177Z,7.20
2019-02-17T20:18:54.317Z,7.20
2019-02-17T20:21:35.144Z,7.10
2019-02-17T20:24:15.831Z,7.10
2019-02-17T20:26:56.796Z,7.10
2019-02-17T20:29:37.930Z,7.00
2019-02-17T20:32:18.966Z,6.90
2019-02-17T20:34:59.543Z,6.90
2019-02-17T20:37:40.322Z,6.90
2019-02-17T20:40:21.151Z,6.90
2019-02-17T20:43:01.910Z,6.90
2019-02-17T20:45:42.486Z,6.80
2019-02-17T20:48:23.254Z,6.80
2019-02-17T20:51:04.053Z,6.80
2019-02-17T20:53:45.132Z,6.80
2019-02-17T20:56:25.727Z,6.80
2019-02-17T20:59:06.519Z,6.70
2019-02-17T21:01:47.354Z,6.60
2019-02-17T21:04:28.211Z,6.60
2019-02-17T21:07:09.322Z,6.50
2019-02-17T21:09:50.465Z,6.40
2019-02-17T21:12:31.141Z,6.40
2019-02-17T21:15:12.271Z,6.40
2019-02-17T21:17:52.998Z,6.30
2019-02-17T21:20:34.299Z,6.30
2019-02-17T21:23:15.497Z,6.30
2019-02-17T21:25:56.067Z,6.30
2019-02-17T21:28:36.782Z,6.40
2019-02-17T21:31:17.754Z,6.40
2019-02-17T21:33:58.900Z,6.40
2019-02-17T21:36:39.646Z,6.40
2019-02-17T21:39:08.354Z,6.40
2019-02-17T21:41:56.238Z,6.40
2019-02-17T21:44:44.151Z,6.40
2019-02-17T21:47:32.027Z,6.40
2019-02-17T21:50:19.937Z,6.40
2019-02-17T21:53:10.404Z,6.30
2019-02-17T21:55:57.374Z,6.30
2019-02-17T21:58:45.286Z,6.30
2019-02-17T22:01:33.163Z,6.20
2019-02-17T22:04:21.074Z,6.20
2019-02-17T22:07:08.954Z,6.10
2019-02-17T22:09:56.901Z,6.00
2019-02-17T22:16:28.550Z,5.90
2019-02-17T22:19:09.459Z,5.90
2019-02-17T22:21:50.317Z,5.90
2019-02-17T22:24:30.895Z,5.90
2019-02-17T22:26:59.437Z,5.90
2019-02-17T22:29:47.562Z,5.90
2019-02-17T22:32:35.440Z,5.90
2019-02-17T22:35:23.350Z,5.90
2019-02-17T22:38:11.234Z,5.90
2019-02-17T22:40:59.139Z,5.90
2019-02-17T22:43:47.058Z,5.90
2019-02-17T22:46:34.955Z,5.80
2019-02-17T22:49:22.861Z,5.80
2019-02-17T22:52:10.738Z,5.70
2019-02-17T22:54:58.648Z,5.70
2019-02-17T22:57:46.543Z,5.70
2019-02-17T23:00:55.164Z,5.70
2019-02-17T23:03:43.038Z,5.70
2019-02-17T23:06:31.011Z,5.70
2019-02-17T23:09:19.022Z,5.80
2019-02-17T23:12:06.850Z,5.80
2019-02-17T23:14:54.754Z,5.80
2019-02-17T23:17:42.640Z,5.80
2019-02-17T23:20:23.316Z,5.80
2019-02-17T23:23:03.926Z,5.80
2019-02-17T23:25:44.339Z,5.80
2019-02-17T23:28:25.214Z,5.80
2019-02-17T23:31:06.363Z,5.80
2019-02-17T23:33:46.759Z,5.70
2019-02-17T23:36:27.420Z,5.70
2019-02-17T23:39:07.934Z,5.70
2019-02-17T23:41:48.782Z,5.60
2019-02-17T23:44:29.621Z,5.60
2019-02-17T23:47:09.986Z,5.60
2019-02-17T23:49:50.815Z,5.50
2019-02-17T23:52:31.448Z,5.50
2019-02-17T23:55:11.917Z,5.40
2019-02-17T23:57:52.550Z,5.40
